sensor_id;sensor_type;location;lat;lon;timestamp;P1;durP1;ratioP1;P2;durP2;ratioP2
19854;SDS011;10088;47.946;2.532;2022-10-30T00:00:10;14.13;;;5.83;;
19854;SDS011;10088;47.946;2.532;2022-10-30T00:02:36;8.23;;;4.30;;
19854;SDS011;10088;47.946;2.532;2022-10-30T00:05:01;13.50;;;4.53;;
19854;SDS011;10088;47.946;2.532;2022-10-30T00:07:26;13.60;;;4.97;;
19854;SDS011;10088;47.946;2.532;2022-10-30T00:09:52;11.53;;;4.97;;
19854;SDS011;10088;47.946;2.532;2022-10-30T00:12:17;17.30;;;5.50;;
19854;SDS011;10088;47.946;2.532;2022-10-30T00:14:42;14.00;;;6.43;;
19854;SDS011;10088;47.946;2.532;2022-10-30T00:17:07;10.93;;;6.50;;
19854;SDS011;10088;47.946;2.532;2022-10-30T00:19:33;11.90;;;5.57;;
19854;SDS011;10088;47.946;2.532;2022-10-30T00:21:58;12.57;;;5.43;;
19854;SDS011;10088;47.946;2.532;2022-10-30T00:24:26;11.10;;;5.23;;
19854;SDS011;10088;47.946;2.532;2022-10-30T00:26:52;13.30;;;5.17;;
19854;SDS011;10088;47.946;2.532;2022-10-30T00:29:17;11.20;;;4.93;;
19854;SDS011;10088;47.946;2.532;2022-10-30T00:31:42;9.33;;;4.27;;
19854;SDS011;10088;47.946;2.532;2022-10-30T00:34:07;8.57;;;5.27;;
19854;SDS011;10088;47.946;2.532;2022-10-30T00:36:33;13.37;;;4.80;;
19854;SDS011;10088;47.946;2.532;2022-10-30T00:38:58;14.97;;;5.27;;
19854;SDS011;10088;47.946;2.532;2022-10-30T00:41:23;12.47;;;5.17;;
19854;SDS011;10088;47.946;2.532;2022-10-30T00:43:49;8.43;;;4.60;;
19854;SDS011;10088;47.946;2.532;2022-10-30T00:46:28;7.73;;;4.77;;
19854;SDS011;10088;47.946;2.532;2022-10-30T00:49:05;12.77;;;4.70;;
19854;SDS011;10088;47.946;2.532;2022-10-30T00:51:34;8.53;;;4.80;;
19854;SDS011;10088;47.946;2.532;2022-10-30T00:54:01;12.93;;;4.53;;
19854;SDS011;10088;47.946;2.532;2022-10-30T00:56:27;14.67;;;5.07;;
19854;SDS011;10088;47.946;2.532;2022-10-30T00:58:54;9.27;;;4.53;;
19854;SDS011;10088;47.946;2.532;2022-10-30T01:01:23;9.17;;;4.53;;
19854;SDS011;10088;47.946;2.532;2022-10-30T01:03:51;11.20;;;5.10;;
19854;SDS011;10088;47.946;2.532;2022-10-30T01:06:16;10.23;;;5.37;;
19854;SDS011;10088;47.946;2.532;2022-10-30T01:08:42;15.60;;;5.03;;
19854;SDS011;10088;47.946;2.532;2022-10-30T01:11:08;7.33;;;5.10;;
19854;SDS011;10088;47.946;2.532;2022-10-30T01:13:34;12.43;;;5.20;;
19854;SDS011;10088;47.946;2.532;2022-10-30T01:16:16;9.93;;;3.80;;
19854;SDS011;10088;47.946;2.532;2022-10-30T01:18:51;9.77;;;4.93;;
19854;SDS011;10088;47.946;2.532;2022-10-30T01:28:58;11.30;;;4.77;;
19854;SDS011;10088;47.946;2.532;2022-10-30T01:31:31;9.90;;;4.70;;
19854;SDS011;10088;47.946;2.532;2022-10-30T01:36:36;12.80;;;5.60;;
19854;SDS011;10088;47.946;2.532;2022-10-30T01:39:14;11.27;;;5.37;;
19854;SDS011;10088;47.946;2.532;2022-10-30T01:41:40;11.63;;;4.60;;
19854;SDS011;10088;47.946;2.532;2022-10-30T01:44:07;14.03;;;4.50;;
19854;SDS011;10088;47.946;2.532;2022-10-30T01:46:37;8.77;;;4.20;;
19854;SDS011;10088;47.946;2.532;2022-10-30T01:59:20;9.70;;;4.50;;
19854;SDS011;10088;47.946;2.532;2022-10-30T02:01:47;10.00;;;4.67;;
19854;SDS011;10088;47.946;2.532;2022-10-30T02:04:13;11.97;;;5.60;;
19854;SDS011;10088;47.946;2.532;2022-10-30T02:06:38;9.67;;;6.07;;
19854;SDS011;10088;47.946;2.532;2022-10-30T02:09:05;12.17;;;5.77;;
19854;SDS011;10088;47.946;2.532;2022-10-30T02:11:30;17.73;;;5.37;;
19854;SDS011;10088;47.946;2.532;2022-10-30T02:13:56;10.57;;;5.40;;
19854;SDS011;10088;47.946;2.532;2022-10-30T02:16:22;19.30;;;5.23;;
19854;SDS011;10088;47.946;2.532;2022-10-30T02:18:48;12.57;;;4.90;;
19854;SDS011;10088;47.946;2.532;2022-10-30T02:21:13;11.50;;;4.80;;
19854;SDS011;10088;47.946;2.532;2022-10-30T02:23:39;11.00;;;5.20;;
19854;SDS011;10088;47.946;2.532;2022-10-30T02:26:04;8.73;;;4.50;;
19854;SDS011;10088;47.946;2.532;2022-10-30T02:28:29;13.50;;;4.90;;
19854;SDS011;10088;47.946;2.532;2022-10-30T02:30:55;13.97;;;4.80;;
19854;SDS011;10088;47.946;2.532;2022-10-30T02:33:20;7.97;;;5.07;;
19854;SDS011;10088;47.946;2.532;2022-10-30T02:35:45;8.80;;;4.73;;
19854;SDS011;10088;47.946;2.532;2022-10-30T02:38:11;11.17;;;4.70;;
19854;SDS011;10088;47.946;2.532;2022-10-30T02:40:36;9.23;;;4.70;;
19854;SDS011;10088;47.946;2.532;2022-10-30T02:43:01;14.87;;;6.23;;
19854;SDS011;10088;47.946;2.532;2022-10-30T02:45:26;12.07;;;5.40;;
19854;SDS011;10088;47.946;2.532;2022-10-30T02:47:52;11.20;;;5.13;;
19854;SDS011;10088;47.946;2.532;2022-10-30T02:50:17;8.13;;;5.07;;
19854;SDS011;10088;47.946;2.532;2022-10-30T02:52:42;9.63;;;5.33;;
19854;SDS011;10088;47.946;2.532;2022-10-30T02:55:08;7.67;;;5.13;;
19854;SDS011;10088;47.946;2.532;2022-10-30T02:57:33;13.37;;;5.70;;
19854;SDS011;10088;47.946;2.532;2022-10-30T02:59:58;8.93;;;5.43;;
19854;SDS011;10088;47.946;2.532;2022-10-30T03:02:24;11.23;;;5.20;;
19854;SDS011;10088;47.946;2.532;2022-10-30T03:04:49;10.67;;;4.87;;
19854;SDS011;10088;47.946;2.532;2022-10-30T03:07:15;10.47;;;5.63;;
19854;SDS011;10088;47.946;2.532;2022-10-30T03:09:40;9.17;;;5.33;;
19854;SDS011;10088;47.946;2.532;2022-10-30T03:12:05;10.37;;;4.73;;
19854;SDS011;10088;47.946;2.532;2022-10-30T03:14:30;8.47;;;5.40;;
19854;SDS011;10088;47.946;2.532;2022-10-30T03:16:56;15.37;;;5.43;;
19854;SDS011;10088;47.946;2.532;2022-10-30T03:19:21;11.53;;;5.83;;
19854;SDS011;10088;47.946;2.532;2022-10-30T03:21:46;11.97;;;5.40;;
19854;SDS011;10088;47.946;2.532;2022-10-30T03:24:13;15.10;;;5.67;;
19854;SDS011;10088;47.946;2.532;2022-10-30T03:26:38;18.23;;;5.67;;
19854;SDS011;10088;47.946;2.532;2022-10-30T03:29:03;7.60;;;4.40;;
19854;SDS011;10088;47.946;2.532;2022-10-30T03:31:29;8.73;;;4.77;;
19854;SDS011;10088;47.946;2.532;2022-10-30T03:33:55;11.33;;;4.80;;
19854;SDS011;10088;47.946;2.532;2022-10-30T03:36:20;9.93;;;5.30;;
19854;SDS011;10088;47.946;2.532;2022-10-30T03:38:45;9.23;;;4.90;;
19854;SDS011;10088;47.946;2.532;2022-10-30T03:41:10;13.13;;;5.63;;
19854;SDS011;10088;47.946;2.532;2022-10-30T03:43:36;9.10;;;4.97;;
19854;SDS011;10088;47.946;2.532;2022-10-30T03:46:01;12.30;;;4.33;;
19854;SDS011;10088;47.946;2.532;2022-10-30T03:48:27;8.03;;;4.60;;
19854;SDS011;10088;47.946;2.532;2022-10-30T03:50:52;11.83;;;5.60;;
19854;SDS011;10088;47.946;2.532;2022-10-30T03:53:18;9.73;;;4.87;;
19854;SDS011;10088;47.946;2.532;2022-10-30T03:55:43;7.23;;;5.17;;
19854;SDS011;10088;47.946;2.532;2022-10-30T03:58:09;9.23;;;5.50;;
19854;SDS011;10088;47.946;2.532;2022-10-30T04:00:34;13.33;;;6.20;;
19854;SDS011;10088;47.946;2.532;2022-10-30T04:03:00;9.43;;;5.23;;
19854;SDS011;10088;47.946;2.532;2022-10-30T04:05:26;10.63;;;5.37;;
19854;SDS011;10088;47.946;2.532;2022-10-30T04:07:58;8.53;;;5.63;;
19854;SDS011;10088;47.946;2.532;2022-10-30T04:10:24;10.80;;;5.73;;
19854;SDS011;10088;47.946;2.532;2022-10-30T04:12:50;13.97;;;5.40;;
19854;SDS011;10088;47.946;2.532;2022-10-30T04:15:15;12.67;;;6.10;;
19854;SDS011;10088;47.946;2.532;2022-10-30T04:17:46;12.57;;;5.63;;
19854;SDS011;10088;47.946;2.532;2022-10-30T04:20:12;9.00;;;5.33;;
19854;SDS011;10088;47.946;2.532;2022-10-30T04:22:37;9.27;;;4.97;;
19854;SDS011;10088;47.946;2.532;2022-10-30T04:25:02;8.43;;;5.30;;
19854;SDS011;10088;47.946;2.532;2022-10-30T04:27:28;14.30;;;5.57;;
19854;SDS011;10088;47.946;2.532;2022-10-30T04:29:53;15.23;;;5.57;;
19854;SDS011;10088;47.946;2.532;2022-10-30T04:32:18;9.97;;;5.13;;
19854;SDS011;10088;47.946;2.532;2022-10-30T04:34:44;11.47;;;5.20;;
19854;SDS011;10088;47.946;2.532;2022-10-30T04:37:10;9.63;;;5.37;;
19854;SDS011;10088;47.946;2.532;2022-10-30T04:39:35;7.40;;;5.00;;
19854;SDS011;10088;47.946;2.532;2022-10-30T04:42:01;10.80;;;5.03;;
19854;SDS011;10088;47.946;2.532;2022-10-30T04:44:26;11.27;;;5.67;;
19854;SDS011;10088;47.946;2.532;2022-10-30T04:46:51;9.87;;;5.67;;
19854;SDS011;10088;47.946;2.532;2022-10-30T04:49:17;10.43;;;5.57;;
19854;SDS011;10088;47.946;2.532;2022-10-30T04:51:42;8.93;;;5.13;;
19854;SDS011;10088;47.946;2.532;2022-10-30T04:54:07;12.13;;;5.80;;
19854;SDS011;10088;47.946;2.532;2022-10-30T04:56:33;8.70;;;5.23;;
19854;SDS011;10088;47.946;2.532;2022-10-30T04:58:58;10.60;;;5.10;;
19854;SDS011;10088;47.946;2.532;2022-10-30T05:01:23;14.80;;;4.97;;
19854;SDS011;10088;47.946;2.532;2022-10-30T05:03:49;13.67;;;4.43;;
19854;SDS011;10088;47.946;2.532;2022-10-30T05:08:40;10.17;;;4.87;;
19854;SDS011;10088;47.946;2.532;2022-10-30T05:11:05;9.77;;;5.00;;
19854;SDS011;10088;47.946;2.532;2022-10-30T05:13:30;13.57;;;5.10;;
19854;SDS011;10088;47.946;2.532;2022-10-30T05:15:56;12.27;;;4.83;;
19854;SDS011;10088;47.946;2.532;2022-10-30T05:18:21;15.67;;;5.83;;
19854;SDS011;10088;47.946;2.532;2022-10-30T05:20:46;12.60;;;5.30;;
19854;SDS011;10088;47.946;2.532;2022-10-30T05:23:12;8.57;;;4.63;;
19854;SDS011;10088;47.946;2.532;2022-10-30T05:25:37;8.40;;;4.90;;
19854;SDS011;10088;47.946;2.532;2022-10-30T05:28:03;9.10;;;5.20;;
19854;SDS011;10088;47.946;2.532;2022-10-30T05:30:30;7.07;;;5.60;;
19854;SDS011;10088;47.946;2.532;2022-10-30T05:33:02;9.63;;;5.27;;
19854;SDS011;10088;47.946;2.532;2022-10-30T05:35:28;13.23;;;4.87;;
19854;SDS011;10088;47.946;2.532;2022-10-30T05:37:53;10.00;;;4.63;;
19854;SDS011;10088;47.946;2.532;2022-10-30T05:40:19;10.83;;;5.03;;
19854;SDS011;10088;47.946;2.532;2022-10-30T05:42:48;9.50;;;4.73;;
19854;SDS011;10088;47.946;2.532;2022-10-30T05:45:13;9.13;;;4.67;;
19854;SDS011;10088;47.946;2.532;2022-10-30T05:47:39;9.13;;;5.60;;
19854;SDS011;10088;47.946;2.532;2022-10-30T05:50:04;11.50;;;5.80;;
19854;SDS011;10088;47.946;2.532;2022-10-30T05:52:30;7.23;;;5.37;;
19854;SDS011;10088;47.946;2.532;2022-10-30T05:54:55;9.43;;;5.20;;
19854;SDS011;10088;47.946;2.532;2022-10-30T05:57:20;8.60;;;4.50;;
19854;SDS011;10088;47.946;2.532;2022-10-30T05:59:46;9.47;;;4.43;;
19854;SDS011;10088;47.946;2.532;2022-10-30T06:02:11;10.20;;;4.70;;
19854;SDS011;10088;47.946;2.532;2022-10-30T06:04:36;10.77;;;5.37;;
19854;SDS011;10088;47.946;2.532;2022-10-30T06:07:01;10.43;;;4.50;;
19854;SDS011;10088;47.946;2.532;2022-10-30T06:09:27;7.67;;;4.67;;
19854;SDS011;10088;47.946;2.532;2022-10-30T06:11:52;9.73;;;5.53;;
19854;SDS011;10088;47.946;2.532;2022-10-30T06:14:18;13.77;;;5.43;;
19854;SDS011;10088;47.946;2.532;2022-10-30T06:16:43;8.63;;;4.87;;
19854;SDS011;10088;47.946;2.532;2022-10-30T06:19:08;13.17;;;5.13;;
19854;SDS011;10088;47.946;2.532;2022-10-30T06:21:34;13.03;;;4.83;;
19854;SDS011;10088;47.946;2.532;2022-10-30T06:23:59;13.70;;;5.27;;
19854;SDS011;10088;47.946;2.532;2022-10-30T06:26:24;9.20;;;5.10;;
19854;SDS011;10088;47.946;2.532;2022-10-30T06:28:50;9.03;;;5.23;;
19854;SDS011;10088;47.946;2.532;2022-10-30T06:31:15;18.17;;;5.10;;
19854;SDS011;10088;47.946;2.532;2022-10-30T06:33:40;18.07;;;5.67;;
19854;SDS011;10088;47.946;2.532;2022-10-30T06:36:06;7.47;;;4.93;;
19854;SDS011;10088;47.946;2.532;2022-10-30T06:38:31;9.83;;;4.23;;
19854;SDS011;10088;47.946;2.532;2022-10-30T06:40:56;9.23;;;4.17;;
19854;SDS011;10088;47.946;2.532;2022-10-30T06:43:22;11.10;;;4.03;;
19854;SDS011;10088;47.946;2.532;2022-10-30T06:45:47;7.40;;;3.87;;
19854;SDS011;10088;47.946;2.532;2022-10-30T06:48:12;7.93;;;4.33;;
19854;SDS011;10088;47.946;2.532;2022-10-30T06:50:38;8.53;;;4.17;;
19854;SDS011;10088;47.946;2.532;2022-10-30T06:53:03;6.70;;;3.73;;
19854;SDS011;10088;47.946;2.532;2022-10-30T06:55:28;8.03;;;4.00;;
19854;SDS011;10088;47.946;2.532;2022-10-30T06:57:54;8.07;;;4.57;;
19854;SDS011;10088;47.946;2.532;2022-10-30T07:00:20;7.70;;;4.47;;
19854;SDS011;10088;47.946;2.532;2022-10-30T07:02:53;7.87;;;4.17;;
19854;SDS011;10088;47.946;2.532;2022-10-30T07:05:18;9.50;;;4.60;;
19854;SDS011;10088;47.946;2.532;2022-10-30T07:07:44;8.13;;;4.40;;
19854;SDS011;10088;47.946;2.532;2022-10-30T07:10:09;6.07;;;4.10;;
19854;SDS011;10088;47.946;2.532;2022-10-30T07:12:34;7.43;;;4.33;;
19854;SDS011;10088;47.946;2.532;2022-10-30T07:15:00;11.77;;;5.00;;
19854;SDS011;10088;47.946;2.532;2022-10-30T07:17:25;10.70;;;4.37;;
19854;SDS011;10088;47.946;2.532;2022-10-30T07:19:50;10.70;;;4.60;;
19854;SDS011;10088;47.946;2.532;2022-10-30T07:22:16;10.27;;;4.73;;
19854;SDS011;10088;47.946;2.532;2022-10-30T07:24:41;5.77;;;4.10;;
19854;SDS011;10088;47.946;2.532;2022-10-30T07:27:07;7.23;;;4.03;;
19854;SDS011;10088;47.946;2.532;2022-10-30T07:29:32;6.50;;;4.23;;
19854;SDS011;10088;47.946;2.532;2022-10-30T07:31:57;8.10;;;4.00;;
19854;SDS011;10088;47.946;2.532;2022-10-30T07:34:23;7.53;;;4.10;;
19854;SDS011;10088;47.946;2.532;2022-10-30T07:36:48;7.53;;;4.70;;
19854;SDS011;10088;47.946;2.532;2022-10-30T07:39:13;8.87;;;4.10;;
19854;SDS011;10088;47.946;2.532;2022-10-30T07:41:38;9.80;;;4.80;;
19854;SDS011;10088;47.946;2.532;2022-10-30T07:44:04;6.93;;;4.80;;
19854;SDS011;10088;47.946;2.532;2022-10-30T07:46:29;8.10;;;4.67;;
19854;SDS011;10088;47.946;2.532;2022-10-30T07:48:55;12.90;;;4.60;;
19854;SDS011;10088;47.946;2.532;2022-10-30T07:51:21;11.17;;;4.57;;
19854;SDS011;10088;47.946;2.532;2022-10-30T07:53:46;15.70;;;4.73;;
19854;SDS011;10088;47.946;2.532;2022-10-30T07:56:11;6.60;;;4.40;;
19854;SDS011;10088;47.946;2.532;2022-10-30T07:58:37;6.40;;;4.27;;
19854;SDS011;10088;47.946;2.532;2022-10-30T08:01:02;10.83;;;4.83;;
19854;SDS011;10088;47.946;2.532;2022-10-30T08:03:28;10.67;;;4.73;;
19854;SDS011;10088;47.946;2.532;2022-10-30T08:05:53;6.87;;;4.20;;
19854;SDS011;10088;47.946;2.532;2022-10-30T08:08:18;9.23;;;4.60;;
19854;SDS011;10088;47.946;2.532;2022-10-30T08:10:44;10.00;;;4.87;;
19854;SDS011;10088;47.946;2.532;2022-10-30T08:13:09;10.23;;;4.43;;
19854;SDS011;10088;47.946;2.532;2022-10-30T08:15:34;10.43;;;3.87;;
19854;SDS011;10088;47.946;2.532;2022-10-30T08:18:00;9.53;;;3.90;;
19854;SDS011;10088;47.946;2.532;2022-10-30T08:20:25;9.27;;;3.63;;
19854;SDS011;10088;47.946;2.532;2022-10-30T08:22:52;10.23;;;3.80;;
19854;SDS011;10088;47.946;2.532;2022-10-30T08:25:18;6.37;;;3.17;;
19854;SDS011;10088;47.946;2.532;2022-10-30T08:30:15;9.40;;;3.23;;
19854;SDS011;10088;47.946;2.532;2022-10-30T08:32:40;6.23;;;2.43;;
19854;SDS011;10088;47.946;2.532;2022-10-30T08:35:06;7.20;;;3.03;;
19854;SDS011;10088;47.946;2.532;2022-10-30T08:37:31;9.17;;;2.63;;
19854;SDS011;10088;47.946;2.532;2022-10-30T08:39:56;5.70;;;2.43;;
19854;SDS011;10088;47.946;2.532;2022-10-30T08:42:22;6.57;;;2.57;;
19854;SDS011;10088;47.946;2.532;2022-10-30T08:44:47;12.07;;;3.27;;
19854;SDS011;10088;47.946;2.532;2022-10-30T08:47:12;8.07;;;2.77;;
19854;SDS011;10088;47.946;2.532;2022-10-30T08:49:38;9.13;;;2.10;;
19854;SDS011;10088;47.946;2.532;2022-10-30T08:52:06;5.50;;;2.50;;
19854;SDS011;10088;47.946;2.532;2022-10-30T08:54:31;10.43;;;3.20;;
19854;SDS011;10088;47.946;2.532;2022-10-30T08:56:56;5.70;;;2.40;;
19854;SDS011;10088;47.946;2.532;2022-10-30T08:59:22;7.07;;;2.50;;
19854;SDS011;10088;47.946;2.532;2022-10-30T09:01:47;8.97;;;2.73;;
19854;SDS011;10088;47.946;2.532;2022-10-30T09:04:15;9.03;;;2.73;;
19854;SDS011;10088;47.946;2.532;2022-10-30T09:06:40;10.33;;;3.13;;
19854;SDS011;10088;47.946;2.532;2022-10-30T09:09:05;7.03;;;2.67;;
19854;SDS011;10088;47.946;2.532;2022-10-30T09:11:31;9.17;;;3.03;;
19854;SDS011;10088;47.946;2.532;2022-10-30T09:13:56;6.37;;;2.83;;
19854;SDS011;10088;47.946;2.532;2022-10-30T09:16:21;8.97;;;2.50;;
19854;SDS011;10088;47.946;2.532;2022-10-30T09:18:47;9.23;;;2.53;;
19854;SDS011;10088;47.946;2.532;2022-10-30T09:21:12;7.37;;;2.83;;
19854;SDS011;10088;47.946;2.532;2022-10-30T09:23:37;7.97;;;2.43;;
19854;SDS011;10088;47.946;2.532;2022-10-30T09:26:02;11.53;;;3.13;;
19854;SDS011;10088;47.946;2.532;2022-10-30T09:28:28;7.53;;;2.40;;
19854;SDS011;10088;47.946;2.532;2022-10-30T09:30:53;8.97;;;2.90;;
19854;SDS011;10088;47.946;2.532;2022-10-30T09:33:20;5.00;;;2.47;;
19854;SDS011;10088;47.946;2.532;2022-10-30T09:35:46;8.10;;;2.87;;
19854;SDS011;10088;47.946;2.532;2022-10-30T09:38:11;7.10;;;2.40;;
19854;SDS011;10088;47.946;2.532;2022-10-30T09:43:22;9.33;;;2.47;;
19854;SDS011;10088;47.946;2.532;2022-10-30T09:45:57;9.03;;;2.83;;
19854;SDS011;10088;47.946;2.532;2022-10-30T09:49:10;11.30;;;3.40;;
19854;SDS011;10088;47.946;2.532;2022-10-30T09:56:31;5.60;;;2.50;;
19854;SDS011;10088;47.946;2.532;2022-10-30T10:02:00;5.83;;;2.17;;
19854;SDS011;10088;47.946;2.532;2022-10-30T10:04:43;10.97;;;2.87;;
19854;SDS011;10088;47.946;2.532;2022-10-30T10:09:52;8.73;;;2.80;;
19854;SDS011;10088;47.946;2.532;2022-10-30T10:12:25;10.80;;;2.83;;
19854;SDS011;10088;47.946;2.532;2022-10-30T10:14:52;7.17;;;1.90;;
19854;SDS011;10088;47.946;2.532;2022-10-30T10:17:21;12.37;;;3.00;;
19854;SDS011;10088;47.946;2.532;2022-10-30T10:19:57;8.47;;;2.40;;
19854;SDS011;10088;47.946;2.532;2022-10-30T10:22:29;7.87;;;2.37;;
19854;SDS011;10088;47.946;2.532;2022-10-30T10:24:55;5.03;;;2.10;;
19854;SDS011;10088;47.946;2.532;2022-10-30T10:30:23;10.37;;;3.50;;
19854;SDS011;10088;47.946;2.532;2022-10-30T10:38:15;10.33;;;2.87;;
19854;SDS011;10088;47.946;2.532;2022-10-30T10:45:48;9.03;;;3.57;;
19854;SDS011;10088;47.946;2.532;2022-10-30T10:48:51;8.53;;;2.87;;
19854;SDS011;10088;47.946;2.532;2022-10-30T10:51:10;7.80;;;3.10;;
19854;SDS011;10088;47.946;2.532;2022-10-30T10:53:45;10.87;;;2.97;;
19854;SDS011;10088;47.946;2.532;2022-10-30T10:56:12;8.77;;;3.53;;
19854;SDS011;10088;47.946;2.532;2022-10-30T10:58:50;8.80;;;3.63;;
19854;SDS011;10088;47.946;2.532;2022-10-30T11:01:23;7.77;;;3.53;;
19854;SDS011;10088;47.946;2.532;2022-10-30T11:03:56;9.83;;;4.03;;
19854;SDS011;10088;47.946;2.532;2022-10-30T11:06:34;11.27;;;3.80;;
19854;SDS011;10088;47.946;2.532;2022-10-30T11:09:21;10.93;;;4.23;;
19854;SDS011;10088;47.946;2.532;2022-10-30T11:11:46;11.70;;;4.57;;
19854;SDS011;10088;47.946;2.532;2022-10-30T11:14:16;8.23;;;3.93;;
19854;SDS011;10088;47.946;2.532;2022-10-30T11:19:10;11.83;;;4.37;;
19854;SDS011;10088;47.946;2.532;2022-10-30T11:21:41;12.93;;;4.90;;
19854;SDS011;10088;47.946;2.532;2022-10-30T11:24:30;10.73;;;4.43;;
19854;SDS011;10088;47.946;2.532;2022-10-30T11:26:54;10.50;;;4.83;;
19854;SDS011;10088;47.946;2.532;2022-10-30T11:29:21;8.53;;;4.47;;
19854;SDS011;10088;47.946;2.532;2022-10-30T11:31:57;8.63;;;4.50;;
19854;SDS011;10088;47.946;2.532;2022-10-30T11:34:43;13.83;;;4.57;;
19854;SDS011;10088;47.946;2.532;2022-10-30T11:37:27;11.00;;;4.30;;
19854;SDS011;10088;47.946;2.532;2022-10-30T11:42:33;9.77;;;4.10;;
19854;SDS011;10088;47.946;2.532;2022-10-30T11:44:59;8.63;;;4.00;;
19854;SDS011;10088;47.946;2.532;2022-10-30T11:47:34;8.87;;;4.83;;
19854;SDS011;10088;47.946;2.532;2022-10-30T11:50:00;12.47;;;4.30;;
19854;SDS011;10088;47.946;2.532;2022-10-30T11:52:27;7.77;;;3.77;;
19854;SDS011;10088;47.946;2.532;2022-10-30T11:54:56;9.63;;;4.03;;
19854;SDS011;10088;47.946;2.532;2022-10-30T11:57:32;10.13;;;4.13;;
19854;SDS011;10088;47.946;2.532;2022-10-30T11:59:58;13.23;;;4.70;;
19854;SDS011;10088;47.946;2.532;2022-10-30T12:02:27;9.67;;;4.13;;
19854;SDS011;10088;47.946;2.532;2022-10-30T12:05:12;10.13;;;4.30;;
19854;SDS011;10088;47.946;2.532;2022-10-30T12:07:38;8.90;;;4.00;;
19854;SDS011;10088;47.946;2.532;2022-10-30T12:10:04;13.70;;;4.10;;
19854;SDS011;10088;47.946;2.532;2022-10-30T12:12:34;10.77;;;4.43;;
19854;SDS011;10088;47.946;2.532;2022-10-30T12:15:06;10.73;;;4.63;;
19854;SDS011;10088;47.946;2.532;2022-10-30T12:17:32;10.07;;;4.33;;
19854;SDS011;10088;47.946;2.532;2022-10-30T12:19:57;8.53;;;4.20;;
19854;SDS011;10088;47.946;2.532;2022-10-30T12:22:27;12.60;;;4.37;;
19854;SDS011;10088;47.946;2.532;2022-10-30T12:24:54;10.83;;;4.20;;
19854;SDS011;10088;47.946;2.532;2022-10-30T12:27:20;11.30;;;4.23;;
19854;SDS011;10088;47.946;2.532;2022-10-30T12:35:31;12.17;;;3.93;;
19854;SDS011;10088;47.946;2.532;2022-10-30T12:37:59;11.00;;;3.80;;
19854;SDS011;10088;47.946;2.532;2022-10-30T12:40:29;9.90;;;3.80;;
19854;SDS011;10088;47.946;2.532;2022-10-30T12:45:39;15.03;;;4.83;;
19854;SDS011;10088;47.946;2.532;2022-10-30T12:50:37;16.80;;;5.03;;
19854;SDS011;10088;47.946;2.532;2022-10-30T12:53:13;10.03;;;3.90;;
19854;SDS011;10088;47.946;2.532;2022-10-30T12:55:44;8.30;;;3.83;;
19854;SDS011;10088;47.946;2.532;2022-10-30T13:00:42;12.67;;;4.60;;
19854;SDS011;10088;47.946;2.532;2022-10-30T13:03:20;11.60;;;4.73;;
19854;SDS011;10088;47.946;2.532;2022-10-30T13:05:47;10.47;;;4.23;;
19854;SDS011;10088;47.946;2.532;2022-10-30T13:10:43;8.10;;;3.90;;
19854;SDS011;10088;47.946;2.532;2022-10-30T13:13:13;11.10;;;4.43;;
19854;SDS011;10088;47.946;2.532;2022-10-30T13:15:44;11.60;;;4.77;;
19854;SDS011;10088;47.946;2.532;2022-10-30T13:18:15;9.97;;;4.33;;
19854;SDS011;10088;47.946;2.532;2022-10-30T13:20:41;8.40;;;3.40;;
19854;SDS011;10088;47.946;2.532;2022-10-30T13:23:09;12.70;;;4.33;;
19854;SDS011;10088;47.946;2.532;2022-10-30T13:25:41;12.17;;;4.47;;
19854;SDS011;10088;47.946;2.532;2022-10-30T13:28:22;11.27;;;4.17;;
19854;SDS011;10088;47.946;2.532;2022-10-30T13:30:56;9.83;;;4.10;;
19854;SDS011;10088;47.946;2.532;2022-10-30T13:33:26;10.50;;;4.10;;
19854;SDS011;10088;47.946;2.532;2022-10-30T13:38:35;14.67;;;4.57;;
19854;SDS011;10088;47.946;2.532;2022-10-30T13:48:28;14.83;;;4.10;;
19854;SDS011;10088;47.946;2.532;2022-10-30T13:53:38;7.70;;;3.80;;
19854;SDS011;10088;47.946;2.532;2022-10-30T13:56:07;7.53;;;3.90;;
19854;SDS011;10088;47.946;2.532;2022-10-30T14:11:03;11.37;;;4.27;;
19854;SDS011;10088;47.946;2.532;2022-10-30T14:18:58;10.57;;;4.20;;
19854;SDS011;10088;47.946;2.532;2022-10-30T14:24:12;9.47;;;3.60;;
19854;SDS011;10088;47.946;2.532;2022-10-30T14:26:49;11.37;;;4.30;;
19854;SDS011;10088;47.946;2.532;2022-10-30T14:29:57;10.23;;;3.83;;
19854;SDS011;10088;47.946;2.532;2022-10-30T14:37:09;12.93;;;4.30;;
19854;SDS011;10088;47.946;2.532;2022-10-30T14:39:38;11.60;;;3.73;;
19854;SDS011;10088;47.946;2.532;2022-10-30T14:44:45;10.47;;;3.70;;
19854;SDS011;10088;47.946;2.532;2022-10-30T14:49:52;9.97;;;3.83;;
19854;SDS011;10088;47.946;2.532;2022-10-30T14:52:34;13.27;;;4.30;;
19854;SDS011;10088;47.946;2.532;2022-10-30T15:03:09;12.80;;;4.03;;
19854;SDS011;10088;47.946;2.532;2022-10-30T15:05:51;14.93;;;3.33;;
19854;SDS011;10088;47.946;2.532;2022-10-30T15:13:21;9.23;;;3.33;;
19854;SDS011;10088;47.946;2.532;2022-10-30T15:16:05;8.20;;;3.13;;
19854;SDS011;10088;47.946;2.532;2022-10-30T15:18:32;11.57;;;3.90;;
19854;SDS011;10088;47.946;2.532;2022-10-30T15:21:00;7.87;;;3.37;;
19854;SDS011;10088;47.946;2.532;2022-10-30T15:23:27;9.50;;;3.60;;
19854;SDS011;10088;47.946;2.532;2022-10-30T15:25:54;7.07;;;3.50;;
19854;SDS011;10088;47.946;2.532;2022-10-30T15:28:21;12.43;;;4.07;;
19854;SDS011;10088;47.946;2.532;2022-10-30T15:33:25;9.00;;;3.60;;
19854;SDS011;10088;47.946;2.532;2022-10-30T15:35:50;12.10;;;3.90;;
19854;SDS011;10088;47.946;2.532;2022-10-30T15:38:15;8.87;;;3.93;;
19854;SDS011;10088;47.946;2.532;2022-10-30T15:40:41;7.67;;;3.80;;
19854;SDS011;10088;47.946;2.532;2022-10-30T15:43:07;9.07;;;3.47;;
19854;SDS011;10088;47.946;2.532;2022-10-30T15:45:35;9.80;;;3.43;;
19854;SDS011;10088;47.946;2.532;2022-10-30T15:48:05;8.53;;;3.23;;
19854;SDS011;10088;47.946;2.532;2022-10-30T15:50:32;11.30;;;4.07;;
19854;SDS011;10088;47.946;2.532;2022-10-30T15:52:58;11.13;;;3.87;;
19854;SDS011;10088;47.946;2.532;2022-10-30T15:55:30;10.40;;;3.60;;
19854;SDS011;10088;47.946;2.532;2022-10-30T15:57:57;8.57;;;3.60;;
19854;SDS011;10088;47.946;2.532;2022-10-30T16:00:34;7.73;;;4.33;;
19854;SDS011;10088;47.946;2.532;2022-10-30T16:05:25;12.13;;;4.23;;
19854;SDS011;10088;47.946;2.532;2022-10-30T16:07:53;9.77;;;4.30;;
19854;SDS011;10088;47.946;2.532;2022-10-30T16:10:19;12.60;;;3.73;;
19854;SDS011;10088;47.946;2.532;2022-10-30T16:12:44;11.60;;;4.40;;
19854;SDS011;10088;47.946;2.532;2022-10-30T16:15:26;11.97;;;4.47;;
19854;SDS011;10088;47.946;2.532;2022-10-30T16:18:05;7.43;;;4.20;;
19854;SDS011;10088;47.946;2.532;2022-10-30T16:20:32;8.13;;;4.03;;
19854;SDS011;10088;47.946;2.532;2022-10-30T16:22:57;8.63;;;3.67;;
19854;SDS011;10088;47.946;2.532;2022-10-30T16:25:23;12.70;;;4.30;;
19854;SDS011;10088;47.946;2.532;2022-10-30T16:27:49;10.83;;;4.30;;
19854;SDS011;10088;47.946;2.532;2022-10-30T16:30:14;13.10;;;4.57;;
19854;SDS011;10088;47.946;2.532;2022-10-30T16:32:40;11.13;;;4.27;;
19854;SDS011;10088;47.946;2.532;2022-10-30T16:35:06;14.40;;;4.60;;
19854;SDS011;10088;47.946;2.532;2022-10-30T16:37:35;11.33;;;4.73;;
19854;SDS011;10088;47.946;2.532;2022-10-30T16:40:02;14.17;;;5.13;;
19854;SDS011;10088;47.946;2.532;2022-10-30T16:42:29;12.33;;;5.83;;
19854;SDS011;10088;47.946;2.532;2022-10-30T16:45:04;10.27;;;4.90;;
19854;SDS011;10088;47.946;2.532;2022-10-30T16:47:47;11.77;;;5.73;;
19854;SDS011;10088;47.946;2.532;2022-10-30T16:50:15;12.30;;;5.30;;
19854;SDS011;10088;47.946;2.532;2022-10-30T16:52:41;9.97;;;5.20;;
19854;SDS011;10088;47.946;2.532;2022-10-30T16:55:07;10.27;;;5.20;;
19854;SDS011;10088;47.946;2.532;2022-10-30T16:57:40;11.73;;;5.23;;